createdAt,value
2018-04-17T00:01:42.490Z,15.57
2018-04-17T00:04:09.284Z,15.10
2018-04-17T00:06:36.026Z,14.38
2018-04-17T00:09:02.710Z,16.95
2018-04-17T00:11:29.407Z,15.23
2018-04-17T00:13:56.090Z,16.05
2018-04-17T00:16:22.808Z,22.58
2018-04-17T00:18:49.494Z,15.07
2018-04-17T00:21:16.175Z,14.75
2018-04-17T00:23:42.871Z,16.10
2018-04-17T00:26:09.576Z,15.60
2018-04-17T00:28:36.285Z,15.38
2018-04-17T00:31:03.094Z,14.75
2018-04-17T00:33:29.819Z,15.55
2018-04-17T00:35:56.514Z,16.27
2018-04-17T00:38:23.253Z,15.68
2018-04-17T00:40:49.946Z,15.07
2018-04-17T00:43:16.639Z,16.20
2018-04-17T00:45:43.478Z,15.25
2018-04-17T00:48:10.212Z,14.93
2018-04-17T00:50:36.889Z,16.87
2018-04-17T00:53:09.541Z,15.63
2018-04-17T00:55:36.303Z,14.98
2018-04-17T00:58:03.126Z,14.77
2018-04-17T01:00:29.833Z,15.02
2018-04-17T01:02:56.520Z,14.77
2018-04-17T01:05:23.249Z,14.15
2018-04-17T01:07:49.935Z,16.05
2018-04-17T01:10:16.649Z,14.32
2018-04-17T01:12:43.473Z,16.30
2018-04-17T01:15:10.243Z,14.90
2018-04-17T01:17:36.952Z,16.90
2018-04-17T01:20:03.716Z,15.07
2018-04-17T01:22:30.389Z,15.02
2018-04-17T01:24:57.104Z,15.60
2018-04-17T01:27:23.787Z,15.27
2018-04-17T01:29:50.573Z,14.55
2018-04-17T01:32:17.263Z,14.00
2018-04-17T01:34:43.944Z,14.63
2018-04-17T01:37:10.643Z,14.95
2018-04-17T01:39:37.338Z,15.63
2018-04-17T01:42:04.040Z,15.52
2018-04-17T01:44:30.887Z,15.00
2018-04-17T01:46:57.679Z,15.13
2018-04-17T01:49:24.380Z,15.25
2018-04-17T01:51:51.234Z,16.08
2018-04-17T01:54:17.938Z,17.27
2018-04-17T01:56:44.623Z,18.15
2018-04-17T01:59:11.326Z,16.98
2018-04-17T02:01:38.099Z,17.10
2018-04-17T02:04:04.783Z,15.35
2018-04-17T02:06:31.582Z,16.37
2018-04-17T02:08:58.280Z,16.77
2018-04-17T02:11:24.962Z,15.00
2018-04-17T02:13:51.930Z,16.62
2018-04-17T02:16:18.620Z,17.65
2018-04-17T02:18:45.320Z,15.50
2018-04-17T02:21:12.007Z,14.57
2018-04-17T02:23:38.683Z,16.02
2018-04-17T02:26:05.378Z,16.20
2018-04-17T02:28:32.062Z,15.93
2018-04-17T02:30:58.848Z,16.33
2018-04-17T02:33:25.531Z,17.23
2018-04-17T02:35:52.219Z,15.80
2018-04-17T02:38:18.942Z,19.83
2018-04-17T02:40:45.632Z,16.02
2018-04-17T02:43:12.331Z,15.77
2018-04-17T02:45:39.020Z,15.35
2018-04-17T02:48:05.711Z,15.68
2018-04-17T02:50:32.403Z,16.35
2018-04-17T02:52:59.091Z,16.75
2018-04-17T02:55:25.791Z,17.25
2018-04-17T02:57:52.479Z,14.25
2018-04-17T03:00:19.202Z,15.77
2018-04-17T03:02:45.936Z,15.50
2018-04-17T03:05:12.694Z,15.93
2018-04-17T03:07:39.390Z,16.33
2018-04-17T03:10:06.091Z,15.43
2018-04-17T03:12:32.808Z,15.82
2018-04-17T03:14:59.503Z,14.05
2018-04-17T03:17:26.187Z,14.85
2018-04-17T03:19:52.886Z,18.98
2018-04-17T03:22:19.662Z,16.17
2018-04-17T03:24:46.347Z,17.00
2018-04-17T03:27:13.052Z,16.48
2018-04-17T03:29:39.734Z,15.32
2018-04-17T03:32:06.530Z,15.55
2018-04-17T03:34:33.215Z,15.35
2018-04-17T03:36:59.896Z,18.85
2018-04-17T03:39:26.658Z,16.08
2018-04-17T03:41:53.339Z,15.93
2018-04-17T03:44:20.030Z,15.85
2018-04-17T03:46:46.766Z,16.75
2018-04-17T03:49:13.456Z,16.25
2018-04-17T03:51:40.149Z,17.17
2018-04-17T03:54:06.899Z,16.45
2018-04-17T03:56:33.608Z,17.05
2018-04-17T03:59:00.298Z,16.67
2018-04-17T04:01:26.982Z,17.87
2018-04-17T04:03:53.670Z,14.55
2018-04-17T04:06:20.363Z,16.58
2018-04-17T04:08:47.052Z,15.48
2018-04-17T04:11:13.759Z,21.65
2018-04-17T04:13:40.510Z,28.98
2018-04-17T04:16:13.304Z,19.55
2018-04-17T04:18:45.762Z,24.65
2018-04-17T04:21:18.263Z,19.50
2018-04-17T04:23:50.728Z,22.05
2018-04-17T04:26:23.247Z,35.85
2018-04-17T04:28:49.925Z,29.25
2018-04-17T04:31:16.615Z,28.85
2018-04-17T04:33:43.437Z,27.33
2018-04-17T04:36:11.067Z,22.65
2018-04-17T04:38:37.839Z,20.27
2018-04-17T04:41:04.579Z,19.50
2018-04-17T04:43:31.319Z,20.33
2018-04-17T04:45:58.016Z,21.52
2018-04-17T04:48:24.703Z,18.58
2018-04-17T04:50:51.408Z,28.17
2018-04-17T04:53:18.188Z,39.42
2018-04-17T04:55:44.880Z,24.37
2018-04-17T04:58:11.584Z,23.92
2018-04-17T05:00:38.312Z,97.68
2018-04-17T05:03:05.017Z,57.88
2018-04-17T05:05:31.695Z,24.52
2018-04-17T05:07:58.378Z,34.42
2018-04-17T05:10:25.243Z,20.30
2018-04-17T05:12:51.972Z,28.73
2018-04-17T05:15:18.647Z,30.60
2018-04-17T05:17:45.369Z,23.98
2018-04-17T05:20:12.140Z,26.45
2018-04-17T05:22:38.839Z,48.38
2018-04-17T05:25:05.527Z,24.05
2018-04-17T05:27:32.332Z,50.58
2018-04-17T05:29:59.022Z,31.58
2018-04-17T05:32:25.721Z,27.45
2018-04-17T05:34:52.556Z,71.65
2018-04-17T05:37:19.239Z,23.60
2018-04-17T05:39:45.941Z,26.33
2018-04-17T05:42:12.627Z,33.10
2018-04-17T05:44:39.318Z,27.45
2018-04-17T05:47:06.058Z,29.33
2018-04-17T05:49:32.798Z,17.67
2018-04-17T05:51:59.447Z,16.50
2018-04-17T05:54:26.084Z,16.67
2018-04-17T05:56:52.823Z,19.15
2018-04-17T05:59:19.463Z,14.85
2018-04-17T06:01:46.092Z,14.63
2018-04-17T06:04:12.816Z,14.40
2018-04-17T06:06:39.443Z,14.18
2018-04-17T06:09:06.095Z,14.55
2018-04-17T06:11:32.736Z,14.85
2018-04-17T06:13:59.476Z,14.98
2018-04-17T06:16:26.124Z,14.43
2018-04-17T06:18:52.760Z,14.70
2018-04-17T06:21:19.390Z,14.60
2018-04-17T06:23:46.131Z,13.73
2018-04-17T06:26:12.761Z,15.93
2018-04-17T06:28:39.402Z,13.80
2018-04-17T06:31:06.041Z,14.05
2018-04-17T06:33:32.675Z,13.10
2018-04-17T06:35:59.330Z,12.10
2018-04-17T06:38:26.067Z,13.93
2018-04-17T06:40:52.808Z,15.13
2018-04-17T06:43:19.451Z,16.08
2018-04-17T06:45:46.073Z,15.55
2018-04-17T06:48:12.710Z,17.30
2018-04-17T06:50:39.346Z,17.52
2018-04-17T06:53:06.002Z,17.65
2018-04-17T06:55:32.749Z,18.23
2018-04-17T06:57:59.409Z,18.00
2018-04-17T07:00:26.052Z,18.17
2018-04-17T07:02:52.764Z,17.40
2018-04-17T07:05:19.541Z,21.17
2018-04-17T07:07:46.248Z,19.98
2018-04-17T07:10:12.879Z,22.70
2018-04-17T07:12:39.515Z,17.20
2018-04-17T07:15:06.144Z,19.23
2018-04-17T07:17:32.903Z,18.00
2018-04-17T07:19:59.568Z,18.45
2018-04-17T07:22:26.195Z,18.02
2018-04-17T07:24:52.827Z,21.90
2018-04-17T07:27:19.451Z,17.12
2018-04-17T07:29:46.099Z,17.20
2018-04-17T07:32:12.739Z,16.95
2018-04-17T07:34:39.413Z,16.85
2018-04-17T07:37:06.149Z,18.73
2018-04-17T07:39:32.792Z,18.98
2018-04-17T07:41:59.527Z,18.55
2018-04-17T07:44:26.159Z,18.90
2018-04-17T07:47:08.456Z,18.95
2018-04-17T07:49:35.184Z,18.58
2018-04-17T07:52:01.806Z,19.17
2018-04-17T07:54:28.455Z,19.10
2018-04-17T07:56:55.089Z,19.05
2018-04-17T07:59:21.747Z,17.90
2018-04-17T08:01:48.383Z,19.58
2018-04-17T08:04:15.127Z,17.73
2018-04-17T08:06:41.828Z,20.33
2018-04-17T08:09:08.530Z,18.67
2018-04-17T08:11:35.179Z,17.67
2018-04-17T08:14:01.812Z,18.02
2018-04-17T08:16:28.446Z,18.02
2018-04-17T08:18:55.160Z,19.37
2018-04-17T08:21:21.803Z,20.20
2018-04-17T08:23:48.450Z,21.25
2018-04-17T08:26:15.078Z,19.48
2018-04-17T08:28:41.815Z,20.05
2018-04-17T08:31:08.466Z,19.67
2018-04-17T08:33:35.124Z,20.60
2018-04-17T08:36:01.766Z,19.08
2018-04-17T08:38:28.502Z,22.45
2018-04-17T08:40:55.228Z,19.02
2018-04-17T08:43:21.871Z,21.87
2018-04-17T08:45:48.507Z,21.70
2018-04-17T08:48:15.168Z,21.10
2018-04-17T08:50:41.879Z,20.30
2018-04-17T08:53:08.621Z,20.85
2018-04-17T08:55:35.386Z,20.80
2018-04-17T08:58:02.023Z,18.35
2018-04-17T09:00:28.662Z,18.80
2018-04-17T09:02:55.290Z,17.77
2018-04-17T09:05:22.027Z,18.12
2018-04-17T09:07:48.667Z,17.08
2018-04-17T09:10:15.425Z,16.20
2018-04-17T09:12:42.070Z,15.80
2018-04-17T09:15:08.703Z,17.52
2018-04-17T09:17:35.424Z,15.50
2018-04-17T09:20:02.070Z,17.00
2018-04-17T09:22:28.694Z,16.00
2018-04-17T09:24:55.444Z,18.58
2018-04-17T09:27:22.084Z,14.23
2018-04-17T09:29:48.826Z,12.98
2018-04-17T09:32:15.468Z,18.15
2018-04-17T09:34:42.212Z,14.95
2018-04-17T09:37:08.860Z,12.98
2018-04-17T09:39:35.500Z,13.70
2018-04-17T09:42:02.136Z,11.52
2018-04-17T09:44:28.779Z,12.37
2018-04-17T09:46:55.409Z,13.05
2018-04-17T09:49:22.130Z,11.05
2018-04-17T09:51:48.777Z,11.40
2018-04-17T09:54:15.524Z,11.68
2018-04-17T09:56:42.159Z,10.77
2018-04-17T09:59:08.808Z,9.93
2018-04-17T10:01:35.534Z,6.75
2018-04-17T10:04:02.169Z,9.15
2018-04-17T10:06:28.802Z,8.30
2018-04-17T10:08:55.546Z,9.60
2018-04-17T10:11:22.187Z,10.10
2018-04-17T10:13:48.827Z,12.10
2018-04-17T10:16:15.458Z,11.02
2018-04-17T10:18:42.104Z,12.00
2018-04-17T10:21:08.733Z,10.57
2018-04-17T10:23:35.357Z,9.95
2018-04-17T10:26:01.993Z,11.02
2018-04-17T10:28:28.623Z,10.68
2018-04-17T10:30:55.314Z,12.43
2018-04-17T10:33:21.942Z,12.45
2018-04-17T10:35:48.579Z,11.90
2018-04-17T10:38:15.227Z,11.73
2018-04-17T10:40:41.847Z,9.63
2018-04-17T10:43:08.605Z,9.55
2018-04-17T10:45:35.235Z,10.05
2018-04-17T10:48:01.906Z,9.65
2018-04-17T10:50:28.650Z,12.55
2018-04-17T10:52:55.363Z,11.85
2018-04-17T10:55:22.097Z,9.95
2018-04-17T10:57:48.732Z,13.60
2018-04-17T11:00:15.359Z,10.23
2018-04-17T11:02:41.999Z,8.52
2018-04-17T11:05:08.650Z,10.88
2018-04-17T11:07:35.432Z,4.72
2018-04-17T11:10:02.480Z,5.20
2018-04-17T11:12:29.421Z,4.82
2018-04-17T11:14:56.304Z,6.12
2018-04-17T11:17:23.058Z,4.93
2018-04-17T11:19:49.895Z,7.80
2018-04-17T11:22:16.590Z,3.65
2018-04-17T11:24:43.280Z,3.62
2018-04-17T11:27:09.975Z,13.25
2018-04-17T11:29:36.754Z,4.78
2018-04-17T11:32:03.560Z,9.73
2018-04-17T11:34:30.368Z,6.45
2018-04-17T11:36:57.744Z,3.62
2018-04-17T11:39:24.477Z,10.25
2018-04-17T11:41:51.270Z,7.93
2018-04-17T11:44:17.932Z,5.07
2018-04-17T11:46:45.338Z,3.47
2018-04-17T11:49:12.181Z,5.50
2018-04-17T11:51:39.848Z,1.90
2018-04-17T11:54:06.517Z,3.08
2018-04-17T11:56:33.204Z,2.75
2018-04-17T11:58:59.831Z,2.40
2018-04-17T12:01:26.485Z,14.85
2018-04-17T12:03:53.129Z,8.35
2018-04-17T12:06:19.755Z,4.15
2018-04-17T12:08:46.446Z,4.55
2018-04-17T12:11:13.078Z,14.00
2018-04-17T12:13:39.723Z,6.37
2018-04-17T12:16:06.388Z,4.45
2018-04-17T12:18:33.011Z,3.63
2018-04-17T12:20:59.651Z,6.90
2018-04-17T12:23:26.271Z,5.70
2018-04-17T12:25:52.912Z,3.73
2018-04-17T12:28:19.549Z,4.70
2018-04-17T12:30:46.180Z,2.47
2018-04-17T12:33:12.881Z,5.07
2018-04-17T12:35:39.501Z,2.70
2018-04-17T12:38:06.165Z,5.33
2018-04-17T12:40:32.826Z,4.20
2018-04-17T12:42:59.567Z,4.37
2018-04-17T12:45:26.283Z,3.00
2018-04-17T12:47:52.926Z,5.30
2018-04-17T12:50:19.555Z,5.40
2018-04-17T12:52:46.187Z,9.37
2018-04-17T12:55:12.811Z,4.53
2018-04-17T12:57:39.447Z,5.90
2018-04-17T13:00:06.112Z,3.17
2018-04-17T13:02:32.758Z,7.03
2018-04-17T13:04:59.413Z,3.23
2018-04-17T13:07:26.034Z,3.10
2018-04-17T13:09:52.672Z,5.37
2018-04-17T13:12:19.290Z,3.30
2018-04-17T13:14:45.965Z,6.80
2018-04-17T13:17:12.603Z,4.40
2018-04-17T13:19:39.228Z,3.63
2018-04-17T13:22:05.867Z,2.03
2018-04-17T13:24:32.495Z,5.63
2018-04-17T13:26:59.151Z,4.87
2018-04-17T13:29:25.891Z,3.13
2018-04-17T13:31:52.519Z,10.97
2018-04-17T13:34:19.159Z,4.47
2018-04-17T13:36:45.816Z,3.00
2018-04-17T13:39:12.574Z,3.70
2018-04-17T13:41:39.244Z,2.42
2018-04-17T13:44:05.879Z,5.35
2018-04-17T13:46:32.527Z,2.60
2018-04-17T13:48:59.232Z,2.33
2018-04-17T13:51:25.852Z,3.90
2018-04-17T13:53:52.483Z,6.73
2018-04-17T13:56:19.110Z,2.73
2018-04-17T13:58:45.756Z,4.97
2018-04-17T14:01:12.411Z,2.47
2018-04-17T14:03:39.035Z,8.77
2018-04-17T14:06:05.698Z,10.50
2018-04-17T14:08:32.341Z,6.07
2018-04-17T14:10:59.059Z,8.90
2018-04-17T14:13:25.688Z,2.97
2018-04-17T14:15:52.335Z,6.33
2018-04-17T14:18:18.963Z,5.97
2018-04-17T14:20:45.583Z,6.70
2018-04-17T14:23:12.280Z,3.70
2018-04-17T14:25:38.905Z,3.60
2018-04-17T14:28:05.523Z,3.60
2018-04-17T14:30:32.176Z,3.47
2018-04-17T14:32:58.804Z,5.03
2018-04-17T14:35:25.546Z,2.73
2018-04-17T14:37:52.193Z,2.63
2018-04-17T14:40:18.861Z,3.50
2018-04-17T14:42:45.491Z,2.57
2018-04-17T14:45:12.216Z,4.00
2018-04-17T14:47:38.978Z,3.27
2018-04-17T14:50:05.604Z,4.63
2018-04-17T14:52:32.231Z,1.70
2018-04-17T14:54:58.873Z,5.00
2018-04-17T14:57:25.499Z,1.93
2018-04-17T14:59:52.156Z,3.00
2018-04-17T15:02:18.882Z,4.17
2018-04-17T15:04:45.511Z,3.40
2018-04-17T15:07:12.147Z,2.40
2018-04-17T15:09:38.776Z,2.23
2018-04-17T15:12:05.427Z,6.20
2018-04-17T15:14:32.052Z,1.50
2018-04-17T15:16:58.749Z,3.17
2018-04-17T15:19:25.381Z,1.50
2018-04-17T15:21:52.002Z,1.73
2018-04-17T15:24:18.638Z,1.77
2018-04-17T15:26:45.272Z,3.63
2018-04-17T15:29:11.891Z,2.33
2018-04-17T15:31:38.582Z,5.43
2018-04-17T15:34:05.290Z,5.30
2018-04-17T15:36:31.917Z,2.20
2018-04-17T15:38:58.600Z,5.07
2018-04-17T15:41:25.306Z,4.37
2018-04-17T15:43:51.945Z,2.10
2018-04-17T15:46:18.623Z,2.40
2018-04-17T15:48:45.246Z,2.50
2018-04-17T15:51:11.850Z,3.80
2018-04-17T15:53:38.497Z,1.57
2018-04-17T15:56:05.137Z,2.37
2018-04-17T15:58:31.746Z,2.43
2018-04-17T16:00:58.455Z,3.90
2018-04-17T16:03:25.109Z,2.67
2018-04-17T16:05:51.682Z,2.30
2018-04-17T16:08:18.301Z,3.10
2018-04-17T16:10:44.913Z,2.30
2018-04-17T16:13:11.659Z,1.80
2018-04-17T16:15:38.269Z,2.40
2018-04-17T16:18:04.880Z,2.57
2018-04-17T16:20:31.498Z,5.53
2018-04-17T16:22:58.105Z,2.13
2018-04-17T16:25:24.725Z,2.37
2018-04-17T16:27:51.445Z,2.20
2018-04-17T16:30:18.053Z,3.77
2018-04-17T16:32:44.669Z,4.30
2018-04-17T16:35:11.277Z,2.13
2018-04-17T16:37:38.006Z,3.20
2018-04-17T16:40:04.640Z,4.73
2018-04-17T16:42:31.288Z,4.75
2018-04-17T16:44:57.935Z,4.68
2018-04-17T16:47:24.568Z,3.45
2018-04-17T16:49:51.307Z,3.10
2018-04-17T16:52:17.959Z,1.73
2018-04-17T16:54:44.594Z,2.72
2018-04-17T16:57:11.215Z,3.72
2018-04-17T16:59:37.972Z,4.37
2018-04-17T17:02:04.597Z,5.30
2018-04-17T17:04:31.244Z,1.90
2018-04-17T17:06:57.883Z,4.82
2018-04-17T17:09:24.503Z,5.97
2018-04-17T17:11:51.168Z,2.90
2018-04-17T17:14:17.901Z,3.75
2018-04-17T17:16:44.527Z,3.30
2018-04-17T17:19:11.185Z,3.83
2018-04-17T17:21:37.808Z,3.35
2018-04-17T17:24:04.442Z,5.70
2018-04-17T17:26:31.084Z,3.90
2018-04-17T17:28:57.707Z,3.45
2018-04-17T17:31:24.351Z,4.55
2018-04-17T17:33:50.975Z,6.03
2018-04-17T17:36:17.604Z,2.65
2018-04-17T17:38:44.239Z,5.03
2018-04-17T17:41:10.863Z,4.72
2018-04-17T17:43:37.508Z,5.60
2018-04-17T17:46:04.132Z,4.50
2018-04-17T17:48:30.755Z,3.95
2018-04-17T17:50:57.392Z,4.32
2018-04-17T17:53:24.023Z,2.92
2018-04-17T17:55:50.663Z,4.15
2018-04-17T17:58:17.291Z,10.38
2018-04-17T18:00:43.923Z,2.62
2018-04-17T18:03:10.582Z,6.35
2018-04-17T18:05:37.199Z,5.30
2018-04-17T18:08:03.832Z,6.50
2018-04-17T18:10:30.450Z,3.20
2018-04-17T18:12:57.076Z,5.05
2018-04-17T18:15:23.712Z,3.33
2018-04-17T18:17:50.331Z,3.25
2018-04-17T18:20:16.971Z,11.00
2018-04-17T18:22:43.690Z,6.10
2018-04-17T18:25:10.343Z,5.78
2018-04-17T18:27:38.004Z,6.00
2018-04-17T18:30:04.639Z,5.10
2018-04-17T18:32:31.358Z,8.02
2018-04-17T18:34:57.994Z,9.75
2018-04-17T18:37:24.628Z,5.62
2018-04-17T18:39:51.268Z,6.87
2018-04-17T18:42:17.903Z,7.75
2018-04-17T18:44:44.543Z,8.65
2018-04-17T18:47:11.160Z,9.55
2018-04-17T18:49:37.783Z,6.78
2018-04-17T18:52:04.496Z,11.15
2018-04-17T18:54:31.123Z,7.53
2018-04-17T18:56:57.767Z,25.85
2018-04-17T18:59:24.386Z,18.58
2018-04-17T19:01:51.073Z,11.00
2018-04-17T19:04:17.710Z,8.35
2018-04-17T19:06:44.423Z,9.18
2018-04-17T19:09:11.058Z,7.55
2018-04-17T19:11:37.684Z,8.93
2018-04-17T19:14:04.301Z,5.55
2018-04-17T19:16:30.983Z,6.00
2018-04-17T19:18:57.646Z,7.20
2018-04-17T19:21:24.363Z,4.82
2018-04-17T19:23:50.994Z,5.95
2018-04-17T19:26:17.624Z,8.98
2018-04-17T19:28:44.383Z,10.30
2018-04-17T19:31:10.999Z,7.97
2018-04-17T19:33:37.635Z,7.47
2018-04-17T19:36:04.259Z,9.32
2018-04-17T19:38:30.897Z,10.88
2018-04-17T19:40:57.575Z,7.80
2018-04-17T19:43:24.208Z,11.18
2018-04-17T19:45:50.850Z,12.52
2018-04-17T19:48:17.482Z,9.68
2018-04-17T19:50:44.102Z,7.43
2018-04-17T19:53:10.766Z,10.20
2018-04-17T19:55:37.396Z,8.70
2018-04-17T19:58:04.042Z,9.45
2018-04-17T20:00:30.666Z,8.45
2018-04-17T20:02:57.341Z,9.98
2018-04-17T20:05:24.075Z,6.85
2018-04-17T20:07:50.699Z,8.98
2018-04-17T20:10:17.451Z,5.97
2018-04-17T20:12:44.096Z,9.07
2018-04-17T20:15:10.719Z,10.50
2018-04-17T20:17:37.348Z,6.30
2018-04-17T20:20:04.003Z,6.53
2018-04-17T20:22:30.643Z,8.82
2018-04-17T20:24:57.283Z,10.85
2018-04-17T20:27:23.909Z,6.10
2018-04-17T20:29:50.560Z,6.40
2018-04-17T20:32:17.185Z,7.47
2018-04-17T20:34:43.828Z,6.57
2018-04-17T20:37:10.480Z,5.85
2018-04-17T20:39:37.100Z,6.87
2018-04-17T20:42:03.751Z,9.05
2018-04-17T20:44:30.370Z,6.75
2018-04-17T20:46:57.011Z,8.48
2018-04-17T20:49:23.635Z,7.82
2018-04-17T20:51:50.255Z,8.68
2018-04-17T20:54:16.894Z,11.98
2018-04-17T20:56:43.618Z,7.82
2018-04-17T20:59:10.255Z,7.12
2018-04-17T21:01:36.880Z,10.05
2018-04-17T21:04:03.571Z,8.32
2018-04-17T21:06:30.210Z,8.15
2018-04-17T21:08:56.886Z,8.23
2018-04-17T21:11:23.555Z,15.40
2018-04-17T21:13:50.172Z,9.38
2018-04-17T21:16:16.804Z,7.15
2018-04-17T21:18:43.455Z,12.02
2018-04-17T21:21:10.084Z,8.57
2018-04-17T21:23:36.720Z,7.20
2018-04-17T21:26:03.346Z,6.37
2018-04-17T21:28:29.971Z,12.90
2018-04-17T21:30:56.607Z,10.63
2018-04-17T21:33:23.274Z,6.37
2018-04-17T21:35:49.912Z,6.35
2018-04-17T21:38:16.559Z,6.37
2018-04-17T21:40:43.179Z,6.53
2018-04-17T21:43:09.830Z,7.10
2018-04-17T21:45:36.456Z,7.95
2018-04-17T21:48:03.121Z,7.68
2018-04-17T21:50:29.743Z,8.68
2018-04-17T21:52:56.379Z,7.82
2018-04-17T21:55:23.015Z,6.10
2018-04-17T21:57:49.642Z,9.23
2018-04-17T22:00:16.285Z,8.48
2018-04-17T22:02:42.911Z,8.75
2018-04-17T22:05:09.586Z,10.82
2018-04-17T22:07:36.214Z,7.45
2018-04-17T22:10:02.839Z,7.57
2018-04-17T22:12:29.532Z,6.97
2018-04-17T22:14:56.247Z,7.70
2018-04-17T22:17:22.879Z,10.57
2018-04-17T22:19:49.506Z,6.80
2018-04-17T22:22:16.122Z,7.60
2018-04-17T22:24:42.764Z,7.70
2018-04-17T22:27:09.387Z,6.70
2018-04-17T22:29:36.001Z,6.30
2018-04-17T22:32:02.638Z,7.30
2018-04-17T22:34:29.264Z,7.00
2018-04-17T22:36:55.912Z,7.70
2018-04-17T22:39:22.543Z,10.40
2018-04-17T22:41:49.166Z,6.97
2018-04-17T22:44:15.804Z,8.52
2018-04-17T22:46:42.436Z,7.18
2018-04-17T22:49:09.077Z,7.70
2018-04-17T22:51:35.701Z,8.55
2018-04-17T22:54:02.323Z,9.63
2018-04-17T22:56:28.953Z,7.37
2018-04-17T22:58:55.588Z,8.32
2018-04-17T23:01:22.227Z,8.98
2018-04-17T23:03:48.866Z,10.80
2018-04-17T23:06:15.495Z,7.60
2018-04-17T23:08:42.130Z,9.00
2018-04-17T23:11:08.752Z,8.43
2018-04-17T23:13:35.393Z,8.48
2018-04-17T23:16:02.020Z,11.05
2018-04-17T23:18:28.635Z,7.95
2018-04-17T23:20:55.280Z,10.80
2018-04-17T23:23:21.930Z,7.60
2018-04-17T23:25:48.602Z,8.75
2018-04-17T23:28:15.323Z,7.97
2018-04-17T23:30:41.948Z,9.05
2018-04-17T23:33:08.722Z,13.50
2018-04-17T23:35:35.449Z,8.57
2018-04-17T23:38:02.077Z,11.45
2018-04-17T23:40:28.844Z,8.95
2018-04-17T23:42:55.560Z,10.93
2018-04-17T23:45:22.206Z,9.75
2018-04-17T23:47:48.934Z,9.25
2018-04-17T23:50:15.558Z,10.52
2018-04-17T23:52:42.220Z,9.23
2018-04-17T23:55:08.859Z,9.93
2018-04-17T23:57:35.472Z,8.70
